Asotin, WA (99402)

4:58 PM PDT on July 30, 2016 (GMT -0700)
Nick's Weather Station | | Change Station
Active Advisory: Fire Weather Warning

Elev 1076 ft 46.37 °N, 117.04 °W | Updated 18 minutes ago

Clear
Clear
96.7 °F
Feels Like 93 °F
N
4.3
Wind Variable Wind from NW
Gusts 4.3 mph

Today
High -- | Low -- °F
--% Chance of Precip.
Yesterday
High -- | Low -- °F
Precip. -- in
Pressure 29.62 in
Visibility 10.0 miles
Clouds Clear
Heat Index 93 °F
Dew Point 42 °F
Humidity 16%
Rainfall 0.00 in
Snow Depth Not available.
5:27 AM 8:20 PM
Waning Crescent, 10% visible
METAR KLWS 302356Z AUTO 31011G21KT 10SM CLR 37/01 A2967 RMK AO2 SLP031 T03670006 10372 20317 58019
Pressure 29.62 in
Visibility 10.0 miles
Clouds Clear
Heat Index 93 °F
Dew Point 42 °F
Humidity 16%
Rainfall 0.00 in
Snow Depth Not available.
5:27 AM 8:20 PM
Waning Crescent, 10% visible
METAR KLWS 302356Z AUTO 31011G21KT 10SM CLR 37/01 A2967 RMK AO2 SLP031 T03670006 10372 20317 58019

10-Day Weather Forecast

Almanac

Astronomy

Jul. 30, 2016 Rise Set
Actual Time
Civil Twilight
Nautical Twilight
Astronomical Twilight
Moon
Length of Visible Light
Length of Day
Tomorrow will be .
, % of the Moon is Illuminated

Today's Extremes

State Highs State Lows

Community

WunderPhotos

Upload Photos

1,928,680 photos uploaded!

WunderBlog® & News

Nearby

Air Quality

  Air Quality AQ Index Pollutant
Not available.

Snow Depth

Station Depth Elevation

Earthquake Activity

City Distance Mag. Time & Date
Minimum magnitude displayed is 2.5.

Coastal Water Temperatures

Place Temperature

Stations

Nearby Weather Stations

Station Location Temp. Windchill Dew Point Humidity Wind Precip. Elev Updated Type
                   

Watches & Warnings

Fire Weather Warning
Issued: 2:27 PM PDT Jul. 30, 2016 – National Weather Service

... Red flag warning remains in effect until 9 PM PDT this evening
for gusty winds and low humidity...

* affected area... Washington and Oregon fire zone 641 covering
the lower Columbia Basin and Blue Mountain foothills.
Washington fire zone 675 covering the Hanford district and the
Yakima Valley.

* Wind... southwest to west 15 to 25 mph with gusts to 35 mph.

* Humidity... 6 to 15 percent.

* Impacts... any fires that develop will likely spread rapidly.
Outdoor burning is not recommended.

Precautionary/preparedness actions...

A red flag warning means that critical fire weather conditions
are either occurring now... .or will shortly. A combination of
strong winds... low relative humidity... and warm temperatures can
contribute to extreme fire behavior.